Time;durP1;ratioP1;P1;durP2;ratioP2;P2;SDS_P1;SDS_P2;PMS_P1;PMS_P2;Temp;Humidity;BMP_temperature;BMP_pressure;BME280_temperature;BME280_humidity;BME280_pressure;Samples;Min_cycle;Max_cycle;Signal;HPM_P1;HPM_P2
2022/12/09 00:00:05;;;;;;;;;;;3.00;98.00;;;;;;5083999;28;19999;-75
2022/12/09 00:02:31;;;;;;;;;;;2.90;98.00;;;;;;5083149;28;20001;-74
2022/12/09 00:04:58;;;;;;;;;;;2.90;98.00;;;;;;5087114;28;19979;-74
2022/12/09 00:07:24;;;;;;;;;;;2.90;98.10;;;;;;5086302;28;19979;-75
2022/12/09 00:09:51;;;;;;;;;;;2.90;98.00;;;;;;5084420;28;19994;-74
2022/12/09 00:12:18;;;;;;;;;;;2.90;98.00;;;;;;5087587;28;19975;-74
2022/12/09 00:14:45;;;;;;;;;;;2.90;98.00;;;;;;5086712;28;20461;-74
2022/12/09 00:17:12;;;;;;;;;;;2.90;98.00;;;;;;5084544;28;20014;-73
2022/12/09 00:19:39;;;;;;;;;;;2.80;98.00;;;;;;5085512;28;20014;-75
2022/12/09 00:22:05;;;;;;;;;;;2.80;98.00;;;;;;5084439;28;19975;-74
2022/12/09 00:24:32;;;;;;;;;;;2.80;98.00;;;;;;5087784;28;19975;-75
2022/12/09 00:26:58;;;;;;;;;;;2.80;98.00;;;;;;5086402;28;20426;-74
2022/12/09 00:29:25;;;;;;;;;;;2.70;98.00;;;;;;5077211;28;20001;-73
2022/12/09 00:31:53;;;;;;;;;;;2.70;97.90;;;;;;5084637;28;20482;-74
2022/12/09 00:34:19;;;;;;;;;;;2.70;97.90;;;;;;5086122;28;19975;-73
2022/12/09 00:36:46;;;;;;;;;;;2.70;97.90;;;;;;5086618;28;19983;-74
2022/12/09 00:39:12;;;;;;;;;;;2.70;97.90;;;;;;5075991;28;19982;-74
2022/12/09 00:41:39;;;;;;;;;;;2.70;97.90;;;;;;5079734;28;19979;-74
2022/12/09 00:44:06;;;;;;;;;;;2.70;97.90;;;;;;5084714;28;19975;-74
2022/12/09 00:46:32;;;;;;;;;;;2.70;97.90;;;;;;5082935;28;20505;-73
2022/12/09 00:49:00;;;;;;;;;;;2.70;97.90;;;;;;5075332;28;20097;-73
2022/12/09 00:51:27;;;;;;;;;;;2.60;97.90;;;;;;5086252;28;20805;-74
2022/12/09 00:53:54;;;;;;;;;;;2.60;97.90;;;;;;5079783;28;19974;-74
2022/12/09 00:56:21;;;;;;;;;;;2.60;97.90;;;;;;5079830;28;20674;-74
2022/12/09 00:58:47;;;;;;;;;;;2.60;97.90;;;;;;5084489;28;20084;-75
2022/12/09 01:01:14;;;;;;;;;;;2.50;97.90;;;;;;5080616;28;20072;-74
2022/12/09 01:03:41;;;;;;;;;;;2.50;97.90;;;;;;5085532;28;20434;-74
2022/12/09 01:06:09;;;;;;;;;;;2.50;97.90;;;;;;5083340;28;19980;-74
2022/12/09 01:08:36;;;;;;;;;;;2.50;97.90;;;;;;5086061;28;19978;-72
2022/12/09 01:11:07;;;;;;;;;;;2.50;97.90;;;;;;5085150;28;19995;-74
2022/12/09 01:13:34;;;;;;;;;;;2.40;97.90;;;;;;5085581;28;19995;-74
2022/12/09 01:16:00;;;;;;;;;;;2.50;98.00;;;;;;5078825;28;19987;-74
2022/12/09 01:18:27;;;;;;;;;;;2.40;98.00;;;;;;5083967;28;19986;-73
2022/12/09 01:20:55;;;;;;;;;;;2.40;98.00;;;;;;5082986;28;20002;-74
2022/12/09 01:23:23;;;;;;;;;;;2.40;98.00;;;;;;5085469;28;20564;-74
2022/12/09 01:25:50;;;;;;;;;;;2.40;98.00;;;;;;5084472;28;19974;-74
2022/12/09 01:28:16;;;;;;;;;;;2.40;98.00;;;;;;5084988;28;19975;-75
2022/12/09 01:30:43;;;;;;;;;;;2.30;98.00;;;;;;5081815;28;20002;-73
2022/12/09 01:33:10;;;;;;;;;;;2.30;98.00;;;;;;5085528;28;20710;-74
2022/12/09 01:35:39;;;;;;;;;;;2.30;98.00;;;;;;5084698;28;20158;-73
2022/12/09 01:38:06;;;;;;;;;;;2.30;98.00;;;;;;5086056;28;19976;-74
2022/12/09 01:40:34;;;;;;;;;;;2.20;98.00;;;;;;5082796;28;20000;-74
2022/12/09 01:43:00;;;;;;;;;;;2.20;98.00;;;;;;5085260;28;19983;-74
2022/12/09 01:45:38;;;;;;;;;;;2.20;98.00;;;;;;5082366;28;20722;-74
2022/12/09 01:48:06;;;;;;;;;;;2.20;98.00;;;;;;5079660;28;19987;-74
2022/12/09 01:50:33;;;;;;;;;;;2.20;98.00;;;;;;5084253;28;19996;-74
2022/12/09 01:53:00;;;;;;;;;;;2.20;98.00;;;;;;5083406;28;19976;-74
2022/12/09 01:55:27;;;;;;;;;;;2.10;98.00;;;;;;5084551;28;20959;-72
2022/12/09 01:57:54;;;;;;;;;;;2.10;98.00;;;;;;5085537;28;20373;-74
2022/12/09 02:00:21;;;;;;;;;;;2.10;98.00;;;;;;5082814;28;19996;-73
2022/12/09 02:02:48;;;;;;;;;;;2.10;98.00;;;;;;5085455;28;20475;-74
2022/12/09 02:05:15;;;;;;;;;;;2.10;98.00;;;;;;5083940;28;20710;-75
2022/12/09 02:07:42;;;;;;;;;;;2.10;98.00;;;;;;5085654;28;19980;-75
2022/12/09 02:10:12;;;;;;;;;;;2.00;98.00;;;;;;5081133;28;20003;-75
2022/12/09 02:12:41;;;;;;;;;;;2.00;98.00;;;;;;5081383;28;19976;-75
2022/12/09 02:15:12;;;;;;;;;;;2.00;98.10;;;;;;5083440;28;19987;-75
2022/12/09 02:17:40;;;;;;;;;;;2.00;98.00;;;;;;5084318;28;20453;-74
2022/12/09 02:20:12;;;;;;;;;;;2.00;98.00;;;;;;5083971;28;19992;-75
2022/12/09 02:22:42;;;;;;;;;;;2.00;98.00;;;;;;5081072;28;19980;-75
2022/12/09 02:25:15;;;;;;;;;;;1.90;98.00;;;;;;5080466;28;20383;-71
2022/12/09 02:27:45;;;;;;;;;;;1.90;98.00;;;;;;5081068;28;19988;-75
2022/12/09 02:30:15;;;;;;;;;;;1.90;98.00;;;;;;5081930;28;20479;-74
2022/12/09 02:32:57;;;;;;;;;;;1.90;98.00;;;;;;5083824;28;20751;-75
2022/12/09 02:35:27;;;;;;;;;;;1.90;98.00;;;;;;5083953;28;19976;-73
2022/12/09 02:37:56;;;;;;;;;;;1.90;98.00;;;;;;5091099;28;19980;-75
2022/12/09 02:40:27;;;;;;;;;;;1.80;98.00;;;;;;5080237;28;19992;-75
2022/12/09 02:42:55;;;;;;;;;;;1.80;98.00;;;;;;5084277;28;19979;-75
2022/12/09 02:45:22;;;;;;;;;;;1.80;97.90;;;;;;5081469;28;19983;-75
2022/12/09 02:47:50;;;;;;;;;;;1.80;97.90;;;;;;5081797;28;20336;-75
2022/12/09 02:50:18;;;;;;;;;;;1.80;97.90;;;;;;5078350;28;19987;-75
2022/12/09 02:52:47;;;;;;;;;;;1.70;97.90;;;;;;5083840;28;20025;-75
2022/12/09 02:55:14;;;;;;;;;;;1.70;97.90;;;;;;5078453;28;19975;-74
2022/12/09 02:57:41;;;;;;;;;;;1.70;97.90;;;;;;5083382;28;19986;-75
2022/12/09 03:00:09;;;;;;;;;;;1.70;97.90;;;;;;5080986;28;20462;-75
2022/12/09 03:02:36;;;;;;;;;;;1.70;97.90;;;;;;5063970;28;19987;-75
2022/12/09 03:05:09;;;;;;;;;;;1.70;97.90;;;;;;5058982;28;19983;-75
2022/12/09 03:07:39;;;;;;;;;;;1.60;97.90;;;;;;5064572;28;20456;-74
2022/12/09 03:10:09;;;;;;;;;;;1.60;97.90;;;;;;5058356;28;20004;-76
2022/12/09 03:12:38;;;;;;;;;;;1.60;97.90;;;;;;5056571;28;19981;-73
2022/12/09 03:15:06;;;;;;;;;;;1.60;97.90;;;;;;5062444;28;19981;-75
2022/12/09 03:17:34;;;;;;;;;;;1.60;97.90;;;;;;5087835;28;19995;-75
2022/12/09 03:20:04;;;;;;;;;;;1.50;97.80;;;;;;5083751;28;19992;-76
2022/12/09 03:22:32;;;;;;;;;;;1.50;97.90;;;;;;5082596;28;19980;-75
2022/12/09 03:25:02;;;;;;;;;;;1.50;97.90;;;;;;5083872;28;19983;-75
2022/12/09 03:27:33;;;;;;;;;;;1.50;97.90;;;;;;5087822;28;20364;-72
2022/12/09 03:30:00;;;;;;;;;;;1.50;97.90;;;;;;5086060;28;19988;-74
2022/12/09 03:32:28;;;;;;;;;;;1.50;97.90;;;;;;5086706;28;20732;-75
2022/12/09 03:34:57;;;;;;;;;;;1.50;97.90;;;;;;5087987;28;19987;-76
2022/12/09 03:37:24;;;;;;;;;;;1.50;97.90;;;;;;5082432;28;19976;-75
2022/12/09 03:39:51;;;;;;;;;;;1.40;97.80;;;;;;5085430;28;19995;-75
2022/12/09 03:42:19;;;;;;;;;;;1.40;97.90;;;;;;5087759;28;19992;-75
2022/12/09 03:44:49;;;;;;;;;;;1.40;97.80;;;;;;5086136;28;19987;-75
2022/12/09 03:47:16;;;;;;;;;;;1.40;97.80;;;;;;5081267;28;19996;-75
2022/12/09 03:49:43;;;;;;;;;;;1.40;97.80;;;;;;5084779;28;19996;-75
2022/12/09 03:52:11;;;;;;;;;;;1.40;97.90;;;;;;5087716;28;19976;-75
2022/12/09 03:54:41;;;;;;;;;;;1.30;97.80;;;;;;5082930;28;20499;-75
2022/12/09 03:57:09;;;;;;;;;;;1.30;97.80;;;;;;5089315;28;19977;-75
2022/12/09 03:59:36;;;;;;;;;;;1.30;97.80;;;;;;5086547;28;20000;-74
2022/12/09 04:02:05;;;;;;;;;;;1.30;97.80;;;;;;5071055;28;20007;-75
2022/12/09 04:04:32;;;;;;;;;;;1.30;97.80;;;;;;5067733;28;19981;-76
2022/12/09 04:06:59;;;;;;;;;;;1.30;97.80;;;;;;5067503;28;19972;-76
2022/12/09 04:09:26;;;;;;;;;;;1.30;97.80;;;;;;5062889;28;20043;-75
2022/12/09 04:11:52;;;;;;;;;;;1.20;97.80;;;;;;5069177;28;20010;-75
2022/12/09 04:14:19;;;;;;;;;;;1.20;97.80;;;;;;5067734;28;20458;-75
2022/12/09 04:16:45;;;;;;;;;;;1.20;97.80;;;;;;5060182;28;19997;-76
2022/12/09 04:19:13;;;;;;;;;;;1.20;97.80;;;;;;5067679;28;19980;-75
2022/12/09 04:21:40;;;;;;;;;;;1.20;97.80;;;;;;5063990;28;19988;-75
2022/12/09 04:24:07;;;;;;;;;;;1.20;97.80;;;;;;5065075;28;19976;-75
2022/12/09 04:26:33;;;;;;;;;;;1.20;97.80;;;;;;5064368;28;19979;-75
2022/12/09 04:29:00;;;;;;;;;;;1.20;97.80;;;;;;5065612;28;19979;-73
2022/12/09 04:31:27;;;;;;;;;;;1.10;97.80;;;;;;5062037;28;20003;-76
2022/12/09 04:33:53;;;;;;;;;;;1.10;97.80;;;;;;5061939;28;19982;-74
2022/12/09 04:36:21;;;;;;;;;;;1.10;97.80;;;;;;5061587;28;19987;-75
2022/12/09 04:38:48;;;;;;;;;;;1.10;97.80;;;;;;5057556;28;19986;-75
2022/12/09 04:41:15;;;;;;;;;;;1.10;97.80;;;;;;5067181;28;19998;-75
2022/12/09 04:43:42;;;;;;;;;;;1.00;97.80;;;;;;5065011;28;20001;-75
2022/12/09 04:46:11;;;;;;;;;;;1.10;97.80;;;;;;5060193;28;19992;-75
2022/12/09 04:48:37;;;;;;;;;;;1.00;97.80;;;;;;5069362;28;19975;-75
2022/12/09 04:51:04;;;;;;;;;;;1.00;97.90;;;;;;5061562;28;19994;-75
2022/12/09 04:53:32;;;;;;;;;;;1.00;97.80;;;;;;5066537;28;19976;-74
2022/12/09 04:55:59;;;;;;;;;;;1.00;97.80;;;;;;5063636;28;20421;-74
2022/12/09 04:58:26;;;;;;;;;;;1.00;97.90;;;;;;5064956;28;20027;-75
2022/12/09 05:00:52;;;;;;;;;;;1.00;97.90;;;;;;5061450;28;20003;-74
2022/12/09 05:03:19;;;;;;;;;;;1.00;97.80;;;;;;5066784;28;20046;-75
2022/12/09 05:05:45;;;;;;;;;;;1.00;97.80;;;;;;5064699;28;19980;-75
2022/12/09 05:08:12;;;;;;;;;;;0.90;97.80;;;;;;5064826;28;20430;-75
2022/12/09 05:10:41;;;;;;;;;;;0.90;97.80;;;;;;5056283;28;20003;-75
2022/12/09 05:13:08;;;;;;;;;;;0.90;97.80;;;;;;5067032;28;20020;-74
2022/12/09 05:15:34;;;;;;;;;;;0.90;97.80;;;;;;5061035;28;20494;-75
2022/12/09 05:18:01;;;;;;;;;;;0.90;97.80;;;;;;5066931;28;19982;-75
2022/12/09 05:20:28;;;;;;;;;;;0.90;97.80;;;;;;5066134;28;20057;-75
2022/12/09 05:22:54;;;;;;;;;;;0.90;97.80;;;;;;5066867;28;20434;-75
2022/12/09 05:25:21;;;;;;;;;;;0.90;97.80;;;;;;5064750;28;19997;-75
2022/12/09 05:27:49;;;;;;;;;;;0.80;97.80;;;;;;5060704;28;20079;-74
2022/12/09 05:30:16;;;;;;;;;;;0.90;97.80;;;;;;5061929;28;19996;-74
2022/12/09 05:32:42;;;;;;;;;;;0.80;97.80;;;;;;5065121;28;20073;-75
2022/12/09 05:35:09;;;;;;;;;;;0.80;97.80;;;;;;5062220;28;19983;-75
2022/12/09 05:37:36;;;;;;;;;;;0.80;97.80;;;;;;5065747;28;20109;-73
2022/12/09 05:40:03;;;;;;;;;;;0.80;97.80;;;;;;5064913;28;20000;-75
2022/12/09 05:42:30;;;;;;;;;;;0.80;97.80;;;;;;5064701;28;20471;-75
2022/12/09 05:44:57;;;;;;;;;;;0.80;97.80;;;;;;5066837;28;20007;-74
2022/12/09 05:47:24;;;;;;;;;;;0.80;97.80;;;;;;5069622;28;19996;-74
2022/12/09 05:49:51;;;;;;;;;;;0.70;97.80;;;;;;5057464;28;19996;-74
2022/12/09 05:52:17;;;;;;;;;;;0.70;97.80;;;;;;5066385;28;19977;-75
2022/12/09 05:54:44;;;;;;;;;;;0.70;97.80;;;;;;5059030;28;19980;-75
2022/12/09 05:57:10;;;;;;;;;;;0.70;97.80;;;;;;5063784;28;19976;-74
2022/12/09 05:59:37;;;;;;;;;;;0.70;97.80;;;;;;5063028;28;20078;-75
2022/12/09 06:02:05;;;;;;;;;;;0.70;97.80;;;;;;5053893;28;20003;-75
2022/12/09 06:04:31;;;;;;;;;;;0.70;97.80;;;;;;5064507;28;20028;-75
2022/12/09 06:06:58;;;;;;;;;;;0.70;97.80;;;;;;5062171;28;19977;-75
2022/12/09 06:09:25;;;;;;;;;;;0.70;97.80;;;;;;5059907;28;20490;-75
2022/12/09 06:11:51;;;;;;;;;;;0.70;97.80;;;;;;5058096;28;20424;-75
2022/12/09 06:14:18;;;;;;;;;;;0.60;97.70;;;;;;5060569;28;19977;-75
2022/12/09 06:16:44;;;;;;;;;;;0.60;97.70;;;;;;5059405;28;19992;-74
2022/12/09 06:19:12;;;;;;;;;;;0.60;97.70;;;;;;5061719;28;19977;-75
2022/12/09 06:21:40;;;;;;;;;;;0.60;97.70;;;;;;5061926;28;19992;-75
2022/12/09 06:24:06;;;;;;;;;;;0.60;97.80;;;;;;5061108;28;19985;-74
2022/12/09 06:26:33;;;;;;;;;;;0.60;97.80;;;;;;5064736;28;19976;-74
2022/12/09 06:29:00;;;;;;;;;;;0.60;97.80;;;;;;5059231;28;19977;-74
2022/12/09 06:31:27;;;;;;;;;;;0.60;97.80;;;;;;5063186;28;19996;-75
2022/12/09 06:33:54;;;;;;;;;;;0.60;97.80;;;;;;5063072;28;20355;-74
2022/12/09 06:36:21;;;;;;;;;;;0.50;97.80;;;;;;5063832;28;19981;-74
2022/12/09 06:38:48;;;;;;;;;;;0.50;97.80;;;;;;5057099;28;19980;-74
2022/12/09 06:41:15;;;;;;;;;;;0.50;97.80;;;;;;5062892;28;20011;-74
2022/12/09 06:43:42;;;;;;;;;;;0.60;97.80;;;;;;5063807;28;19980;-74
2022/12/09 06:46:12;;;;;;;;;;;0.50;97.80;;;;;;5057806;28;19992;-74
2022/12/09 06:48:38;;;;;;;;;;;0.50;97.80;;;;;;5062379;28;19976;-74
2022/12/09 06:51:05;;;;;;;;;;;0.50;97.80;;;;;;5065359;28;19993;-75
2022/12/09 06:53:33;;;;;;;;;;;0.50;97.80;;;;;;5060356;28;19981;-73
2022/12/09 06:56:01;;;;;;;;;;;0.50;97.80;;;;;;5057280;28;20360;-74
2022/12/09 06:58:27;;;;;;;;;;;0.50;97.80;;;;;;5064101;28;19977;-75
2022/12/09 07:00:54;;;;;;;;;;;0.50;97.80;;;;;;5060209;28;20736;-75
2022/12/09 07:03:20;;;;;;;;;;;0.50;97.80;;;;;;5069249;28;21069;-75
2022/12/09 07:05:47;;;;;;;;;;;0.40;97.70;;;;;;5059898;28;19984;-72
2022/12/09 07:08:13;;;;;;;;;;;0.50;97.80;;;;;;5060230;28;19980;-74
2022/12/09 07:10:44;;;;;;;;;;;0.40;97.80;;;;;;5061948;28;20016;-74
2022/12/09 07:13:11;;;;;;;;;;;0.50;97.80;;;;;;5067601;28;20030;-75
2022/12/09 07:15:37;;;;;;;;;;;0.40;97.80;;;;;;5059041;28;19997;-73
2022/12/09 07:18:04;;;;;;;;;;;0.40;97.80;;;;;;5063158;28;19983;-74
2022/12/09 07:20:30;;;;;;;;;;;0.40;97.80;;;;;;5065867;28;20003;-75
2022/12/09 07:22:57;;;;;;;;;;;0.40;97.80;;;;;;5064539;28;19999;-75
2022/12/09 07:25:24;;;;;;;;;;;0.40;97.80;;;;;;5065590;28;19976;-75
2022/12/09 07:27:51;;;;;;;;;;;0.40;97.80;;;;;;5064845;28;19985;-74
2022/12/09 07:30:18;;;;;;;;;;;0.40;97.80;;;;;;5062542;28;20014;-73
2022/12/09 07:32:45;;;;;;;;;;;0.40;97.80;;;;;;5064473;28;19988;-74
2022/12/09 07:35:11;;;;;;;;;;;0.40;97.90;;;;;;5066749;28;19977;-75
2022/12/09 07:37:38;;;;;;;;;;;0.40;97.90;;;;;;5062931;28;20446;-75
2022/12/09 07:40:05;;;;;;;;;;;0.40;97.90;;;;;;5061981;28;19992;-75
2022/12/09 07:42:32;;;;;;;;;;;0.40;97.90;;;;;;5068201;28;20499;-74
2022/12/09 07:45:00;;;;;;;;;;;0.40;97.90;;;;;;5056576;28;20369;-75
2022/12/09 07:47:26;;;;;;;;;;;0.40;97.90;;;;;;5060404;28;20003;-74
2022/12/09 07:49:53;;;;;;;;;;;0.40;97.90;;;;;;5060805;28;20003;-74
2022/12/09 07:52:19;;;;;;;;;;;0.40;97.90;;;;;;5065522;28;19987;-73
2022/12/09 07:54:46;;;;;;;;;;;0.30;97.90;;;;;;5066051;28;20772;-75
2022/12/09 07:57:12;;;;;;;;;;;0.30;97.90;;;;;;5068069;28;19976;-73
2022/12/09 07:59:39;;;;;;;;;;;0.30;97.90;;;;;;5067161;28;19998;-75
2022/12/09 08:02:08;;;;;;;;;;;0.40;97.90;;;;;;5064061;28;20001;-74
2022/12/09 08:04:35;;;;;;;;;;;0.30;97.90;;;;;;5066500;28;19981;-74
2022/12/09 08:07:01;;;;;;;;;;;0.30;97.90;;;;;;5063269;28;19980;-74
2022/12/09 08:09:28;;;;;;;;;;;0.30;97.90;;;;;;5061082;28;19997;-74
2022/12/09 08:11:54;;;;;;;;;;;0.30;97.90;;;;;;5064730;28;19984;-75
2022/12/09 08:14:21;;;;;;;;;;;0.30;97.90;;;;;;5065319;28;19972;-73
2022/12/09 08:16:47;;;;;;;;;;;0.30;97.90;;;;;;5060843;28;20616;-75
2022/12/09 08:19:15;;;;;;;;;;;0.30;98.00;;;;;;5060332;28;19975;-74
2022/12/09 08:21:42;;;;;;;;;;;0.30;98.00;;;;;;5063617;28;19989;-73
2022/12/09 08:24:10;;;;;;;;;;;0.30;98.00;;;;;;5066971;28;19976;-75
2022/12/09 08:26:38;;;;;;;;;;;0.30;98.00;;;;;;5062088;28;19983;-74
2022/12/09 08:29:06;;;;;;;;;;;0.30;98.00;;;;;;5061819;28;19982;-74
2022/12/09 08:31:33;;;;;;;;;;;0.30;98.00;;;;;;5064329;28;19996;-74
2022/12/09 08:34:02;;;;;;;;;;;0.30;98.00;;;;;;5058206;28;19977;-74
2022/12/09 08:36:30;;;;;;;;;;;0.30;98.00;;;;;;5066464;28;20344;-75
2022/12/09 08:38:58;;;;;;;;;;;0.30;98.00;;;;;;5062397;28;19987;-74
2022/12/09 08:41:33;;;;;;;;;;;0.30;98.00;;;;;;5064485;28;20012;-74
2022/12/09 08:44:00;;;;;;;;;;;0.30;98.00;;;;;;5066061;28;20841;-74
2022/12/09 08:46:27;;;;;;;;;;;0.30;98.00;;;;;;5064341;28;20008;-74
2022/12/09 08:48:53;;;;;;;;;;;0.30;98.10;;;;;;5063358;28;20067;-74
2022/12/09 08:51:20;;;;;;;;;;;0.30;98.10;;;;;;5063366;28;19995;-75
2022/12/09 08:53:48;;;;;;;;;;;0.40;98.10;;;;;;5065896;28;19987;-74
2022/12/09 08:56:15;;;;;;;;;;;0.30;98.10;;;;;;5066902;28;19980;-74
2022/12/09 08:58:42;;;;;;;;;;;0.30;98.10;;;;;;5064056;28;21164;-74
2022/12/09 09:01:14;;;;;;;;;;;0.30;98.10;;;;;;5058204;28;20059;-74
2022/12/09 09:03:40;;;;;;;;;;;0.40;98.10;;;;;;5066399;28;20487;-73
2022/12/09 09:06:07;;;;;;;;;;;0.40;98.10;;;;;;5066649;28;20476;-75
2022/12/09 09:08:33;;;;;;;;;;;0.40;98.10;;;;;;5064761;28;20216;-74
2022/12/09 09:11:08;;;;;;;;;;;0.40;98.20;;;;;;5062648;28;19991;-74
2022/12/09 09:13:35;;;;;;;;;;;0.40;98.10;;;;;;5059764;28;19976;-73
2022/12/09 09:16:02;;;;;;;;;;;0.40;98.10;;;;;;5059369;28;19991;-74
2022/12/09 09:18:28;;;;;;;;;;;0.40;98.10;;;;;;5059450;28;19979;-74
2022/12/09 09:20:57;;;;;;;;;;;0.40;98.10;;;;;;5065516;28;19991;-72
2022/12/09 09:23:24;;;;;;;;;;;0.40;98.10;;;;;;5065939;28;19999;-74
2022/12/09 09:25:51;;;;;;;;;;;0.50;98.10;;;;;;5059621;28;19979;-73
2022/12/09 09:28:19;;;;;;;;;;;0.50;98.10;;;;;;5057181;28;20963;-74
2022/12/09 09:30:49;;;;;;;;;;;0.50;98.10;;;;;;5059967;28;20005;-72
2022/12/09 09:33:16;;;;;;;;;;;0.50;98.10;;;;;;5065449;28;20102;-74
2022/12/09 09:35:42;;;;;;;;;;;0.50;98.10;;;;;;5060492;28;19983;-72
2022/12/09 09:38:09;;;;;;;;;;;0.50;98.10;;;;;;5060727;28;19987;-74
2022/12/09 09:40:40;;;;;;;;;;;0.60;98.10;;;;;;5063528;28;20003;-73
2022/12/09 09:43:10;;;;;;;;;;;0.60;98.10;;;;;;5059476;28;19995;-74
2022/12/09 09:45:38;;;;;;;;;;;0.60;98.10;;;;;;5058609;28;19995;-72
2022/12/09 09:48:05;;;;;;;;;;;0.60;98.10;;;;;;5063698;28;19995;-73
2022/12/09 09:50:35;;;;;;;;;;;0.60;98.00;;;;;;5065239;28;20021;-74
2022/12/09 09:53:09;;;;;;;;;;;0.70;98.00;;;;;;5056995;28;19999;-73
2022/12/09 09:55:41;;;;;;;;;;;0.70;98.00;;;;;;5063736;28;19986;-72
2022/12/09 09:58:15;;;;;;;;;;;0.70;98.00;;;;;;5062790;28;19983;-73
2022/12/09 10:00:47;;;;;;;;;;;0.70;97.90;;;;;;5060826;28;20383;-72
2022/12/09 10:03:14;;;;;;;;;;;0.80;97.90;;;;;;5065179;28;19991;-74
2022/12/09 10:05:43;;;;;;;;;;;0.80;97.90;;;;;;5056866;28;20469;-74
2022/12/09 10:08:27;;;;;;;;;;;0.80;97.90;;;;;;5063830;28;19976;-74
2022/12/09 10:10:58;;;;;;;;;;;0.80;97.90;;;;;;5062273;28;20018;-74
2022/12/09 10:13:30;;;;;;;;;;;0.80;97.90;;;;;;5063144;28;20053;-75
2022/12/09 10:16:04;;;;;;;;;;;0.80;97.80;;;;;;5055701;28;20230;-74
2022/12/09 10:18:33;;;;;;;;;;;0.90;97.90;;;;;;5060173;28;20023;-75
2022/12/09 10:21:00;;;;;;;;;;;0.90;97.80;;;;;;5057998;28;19999;-74
2022/12/09 10:23:29;;;;;;;;;;;0.90;97.80;;;;;;5061250;28;20075;-74
2022/12/09 10:25:57;;;;;;;;;;;0.90;97.80;;;;;;5061785;28;20354;-73
2022/12/09 10:28:25;;;;;;;;;;;0.90;97.80;;;;;;5061828;28;19977;-74
2022/12/09 10:30:53;;;;;;;;;;;0.90;97.80;;;;;;5061771;28;20010;-73
2022/12/09 10:33:25;;;;;;;;;;;0.90;97.80;;;;;;5059594;28;19975;-75
2022/12/09 10:35:52;;;;;;;;;;;0.90;97.80;;;;;;5062684;28;19983;-74
2022/12/09 10:38:20;;;;;;;;;;;0.90;97.80;;;;;;5061871;28;20152;-74
2022/12/09 10:40:59;;;;;;;;;;;1.00;97.80;;;;;;5057508;28;20046;-74
2022/12/09 10:43:40;;;;;;;;;;;1.00;97.80;;;;;;5058375;28;20379;-75
2022/12/09 10:46:08;;;;;;;;;;;1.00;97.80;;;;;;5055572;28;20454;-73
2022/12/09 10:48:37;;;;;;;;;;;1.00;97.80;;;;;;5060768;28;19979;-74
2022/12/09 10:51:05;;;;;;;;;;;1.10;97.80;;;;;;5055929;28;19995;-75
2022/12/09 10:53:33;;;;;;;;;;;1.10;97.70;;;;;;5059534;28;19980;-74
2022/12/09 10:56:00;;;;;;;;;;;1.10;97.70;;;;;;5059319;28;19998;-73
2022/12/09 10:58:28;;;;;;;;;;;1.10;97.70;;;;;;5063402;28;20801;-74
2022/12/09 11:00:59;;;;;;;;;;;1.20;97.70;;;;;;5059538;28;19999;-75
2022/12/09 11:03:26;;;;;;;;;;;1.20;97.70;;;;;;5057273;28;19995;-75
2022/12/09 11:05:59;;;;;;;;;;;1.20;97.60;;;;;;5063193;28;20023;-74
2022/12/09 11:08:25;;;;;;;;;;;1.20;97.60;;;;;;5060849;28;19983;-75
2022/12/09 11:10:52;;;;;;;;;;;1.30;97.60;;;;;;5060311;28;20383;-74
2022/12/09 11:13:19;;;;;;;;;;;1.30;97.50;;;;;;5061318;28;20448;-74
2022/12/09 11:15:52;;;;;;;;;;;1.30;97.50;;;;;;5055379;28;19999;-74
2022/12/09 11:18:20;;;;;;;;;;;1.30;97.50;;;;;;5060426;28;19983;-74
2022/12/09 11:20:54;;;;;;;;;;;1.40;97.50;;;;;;5056114;28;19991;-74
2022/12/09 11:23:21;;;;;;;;;;;1.40;97.40;;;;;;5060275;28;19991;-75
2022/12/09 11:25:53;;;;;;;;;;;1.40;97.40;;;;;;5057973;28;19984;-74
2022/12/09 11:28:22;;;;;;;;;;;1.40;97.30;;;;;;5062050;28;19979;-74
2022/12/09 11:30:50;;;;;;;;;;;1.40;97.30;;;;;;5053520;28;20003;-74
2022/12/09 11:33:23;;;;;;;;;;;1.50;97.30;;;;;;5062740;28;19975;-74
2022/12/09 11:35:52;;;;;;;;;;;1.50;97.20;;;;;;5056182;28;19990;-73
2022/12/09 11:38:27;;;;;;;;;;;1.50;97.20;;;;;;5057079;28;19976;-74
2022/12/09 11:40:59;;;;;;;;;;;1.60;97.20;;;;;;5064981;28;20470;-74
2022/12/09 11:43:30;;;;;;;;;;;1.60;97.10;;;;;;5061278;28;20478;-74
2022/12/09 11:45:58;;;;;;;;;;;1.60;97.10;;;;;;5064804;28;19987;-74
2022/12/09 11:48:27;;;;;;;;;;;1.60;97.10;;;;;;5063974;28;20009;-75
2022/12/09 11:50:54;;;;;;;;;;;1.60;97.00;;;;;;5058894;28;19991;-74
2022/12/09 11:53:26;;;;;;;;;;;1.70;97.10;;;;;;5064275;28;20058;-74
2022/12/09 11:55:53;;;;;;;;;;;1.70;97.10;;;;;;5066013;28;19986;-75
2022/12/09 11:58:23;;;;;;;;;;;1.70;97.10;;;;;;5067404;28;19982;-74
2022/12/09 12:00:52;;;;;;;;;;;1.70;97.10;;;;;;5054010;28;20006;-73
2022/12/09 12:03:21;;;;;;;;;;;1.70;97.00;;;;;;5063560;28;19987;-75
2022/12/09 12:05:49;;;;;;;;;;;1.70;97.00;;;;;;5059158;28;19979;-74
2022/12/09 12:08:19;;;;;;;;;;;1.70;97.00;;;;;;5054531;28;20044;-74
2022/12/09 12:10:49;;;;;;;;;;;1.70;97.00;;;;;;5060644;28;19995;-74
2022/12/09 12:13:20;;;;;;;;;;;1.80;97.00;;;;;;5059020;28;19975;-74
2022/12/09 12:15:48;;;;;;;;;;;1.80;97.00;;;;;;5061625;28;19996;-75
2022/12/09 12:18:17;;;;;;;;;;;1.80;97.00;;;;;;5062417;28;19981;-74
2022/12/09 12:20:50;;;;;;;;;;;1.80;97.00;;;;;;5063994;28;20002;-74
2022/12/09 12:23:22;;;;;;;;;;;1.80;97.00;;;;;;5063634;28;20617;-74
2022/12/09 12:25:54;;;;;;;;;;;1.80;97.00;;;;;;5060713;28;19979;-74
2022/12/09 12:28:27;;;;;;;;;;;1.80;97.00;;;;;;5063715;28;19982;-74
2022/12/09 12:30:58;;;;;;;;;;;1.80;97.00;;;;;;5061380;28;19999;-75
2022/12/09 12:33:40;;;;;;;;;;;1.80;97.00;;;;;;5061111;28;20371;-74
2022/12/09 12:36:10;;;;;;;;;;;1.90;97.00;;;;;;5058966;28;19980;-75
2022/12/09 12:38:45;;;;;;;;;;;1.90;97.00;;;;;;5055128;28;20068;-74
2022/12/09 12:41:17;;;;;;;;;;;1.90;97.00;;;;;;5063523;28;19991;-75
2022/12/09 12:46:46;;;;;;;;;;;1.90;97.00;;;;;;5032082;28;20030;-75
2022/12/09 12:49:26;;;;;;;;;;;2.00;97.00;;;;;;5065325;28;20451;-74
2022/12/09 12:51:56;;;;;;;;;;;2.00;97.00;;;;;;5051850;28;19980;-74
2022/12/09 12:54:26;;;;;;;;;;;2.00;97.00;;;;;;5057275;28;19978;-74
2022/12/09 12:57:00;;;;;;;;;;;2.00;96.90;;;;;;5057413;28;19979;-74
2022/12/09 12:59:30;;;;;;;;;;;2.00;96.90;;;;;;5063914;28;19994;-74
2022/12/09 13:02:01;;;;;;;;;;;2.10;96.90;;;;;;5059526;28;20550;-74
2022/12/09 13:04:32;;;;;;;;;;;2.10;96.90;;;;;;5059256;28;20051;-74
2022/12/09 13:07:01;;;;;;;;;;;2.10;97.00;;;;;;5057738;28;19979;-74
2022/12/09 13:09:33;;;;;;;;;;;2.10;96.90;;;;;;5051037;28;20491;-74
2022/12/09 13:12:03;;;;;;;;;;;2.10;96.90;;;;;;5059968;28;19976;-73
2022/12/09 13:14:31;;;;;;;;;;;2.10;97.00;;;;;;5061017;28;19979;-73
2022/12/09 13:16:58;;;;;;;;;;;2.10;96.90;;;;;;5053390;28;19999;-74
2022/12/09 13:19:28;;;;;;;;;;;2.10;96.90;;;;;;5062985;28;19995;-73
2022/12/09 13:21:54;;;;;;;;;;;2.10;96.90;;;;;;5064874;28;19979;-74
2022/12/09 13:24:26;;;;;;;;;;;2.20;97.00;;;;;;5063542;28;19991;-73
2022/12/09 13:26:57;;;;;;;;;;;2.20;97.00;;;;;;5059206;28;19979;-74
2022/12/09 13:29:30;;;;;;;;;;;2.20;96.90;;;;;;5063183;28;20006;-74
2022/12/09 13:32:00;;;;;;;;;;;2.20;96.90;;;;;;5057764;28;20069;-74
2022/12/09 13:34:31;;;;;;;;;;;2.20;96.90;;;;;;5065138;28;20780;-74
2022/12/09 13:36:58;;;;;;;;;;;2.20;96.90;;;;;;5060657;28;19979;-73
2022/12/09 13:39:43;;;;;;;;;;;2.30;97.00;;;;;;5058199;28;19999;-73
2022/12/09 13:45:20;;;;;;;;;;;2.30;97.00;;;;;;5058372;28;20032;-73
2022/12/09 13:47:47;;;;;;;;;;;2.30;97.00;;;;;;5058134;28;19979;-73
2022/12/09 13:50:23;;;;;;;;;;;2.30;97.00;;;;;;5060106;28;19995;-74
2022/12/09 13:52:52;;;;;;;;;;;2.30;97.00;;;;;;5060536;28;20060;-74
2022/12/09 13:55:30;;;;;;;;;;;2.30;97.00;;;;;;5058047;28;19987;-74
2022/12/09 13:58:01;;;;;;;;;;;2.30;97.00;;;;;;5061714;28;19980;-74
2022/12/09 14:00:30;;;;;;;;;;;2.40;97.00;;;;;;5057410;28;19995;-74
2022/12/09 14:02:58;;;;;;;;;;;2.30;97.00;;;;;;5055031;28;19979;-74
2022/12/09 14:05:27;;;;;;;;;;;2.40;97.00;;;;;;5061273;28;20435;-74
2022/12/09 14:07:57;;;;;;;;;;;2.40;97.00;;;;;;5061268;28;19986;-74
2022/12/09 14:10:38;;;;;;;;;;;2.40;97.00;;;;;;5064620;28;19999;-73
2022/12/09 14:13:18;;;;;;;;;;;2.40;97.00;;;;;;5062717;28;19990;-74
2022/12/09 14:15:47;;;;;;;;;;;2.40;97.00;;;;;;5055483;28;20030;-74
2022/12/09 14:18:27;;;;;;;;;;;2.40;97.00;;;;;;5054848;28;19986;-74
2022/12/09 14:21:10;;;;;;;;;;;2.40;97.00;;;;;;5057292;28;19991;-74
2022/12/09 14:23:37;;;;;;;;;;;2.40;97.00;;;;;;5059614;28;19991;-72
2022/12/09 14:26:04;;;;;;;;;;;2.40;97.00;;;;;;5062084;28;20094;-74
2022/12/09 14:28:58;;;;;;;;;;;2.40;97.00;;;;;;5061147;28;20576;-73
2022/12/09 14:31:48;;;;;;;;;;;2.40;97.00;;;;;;5062528;28;20004;-74
2022/12/09 14:34:25;;;;;;;;;;;2.50;97.00;;;;;;5058171;28;19983;-74
2022/12/09 14:36:54;;;;;;;;;;;2.40;97.30;;;;;;5060545;28;19979;-74
2022/12/09 14:39:24;;;;;;;;;;;2.40;97.00;;;;;;5057929;28;19975;-74
2022/12/09 14:41:53;;;;;;;;;;;2.40;97.00;;;;;;5061678;28;19990;-73
2022/12/09 14:44:24;;;;;;;;;;;2.50;97.00;;;;;;5061891;28;20006;-73